createdAt,value
2023-02-25T00:01:32.323Z,35.33
2023-02-25T00:03:59.705Z,35.71
2023-02-25T00:06:26.526Z,35.32
2023-02-25T00:08:54.390Z,35.32
2023-02-25T00:11:23.470Z,35.59
2023-02-25T00:13:50.530Z,35.66
2023-02-25T00:16:19.070Z,35.40
2023-02-25T00:18:46.925Z,35.59
2023-02-25T00:21:16.072Z,35.23
2023-02-25T00:23:45.016Z,35.18
2023-02-25T00:26:12.156Z,35.44
2023-02-25T00:28:40.433Z,35.20
2023-02-25T00:31:12.254Z,35.26
2023-02-25T00:33:42.176Z,35.02
2023-02-25T00:36:21.533Z,35.34
2023-02-25T00:38:52.901Z,35.19
2023-02-25T00:41:21.944Z,35.40
2023-02-25T00:43:51.685Z,35.47
2023-02-25T00:46:18.899Z,35.19
2023-02-25T00:48:45.824Z,35.34
2023-02-25T00:51:15.278Z,35.08
2023-02-25T00:53:43.845Z,35.30
2023-02-25T00:56:15.644Z,35.30
2023-02-25T00:58:48.364Z,35.24
2023-02-25T01:01:19.489Z,35.04
2023-02-25T01:03:46.910Z,35.33
2023-02-25T01:06:15.086Z,35.24
2023-02-25T01:08:41.958Z,35.02
2023-02-25T01:11:20.838Z,35.24
2023-02-25T01:13:50.852Z,35.16
2023-02-25T01:16:23.127Z,34.90
2023-02-25T01:18:55.012Z,35.15
2023-02-25T01:21:34.951Z,34.98
2023-02-25T01:24:08.072Z,34.92
2023-02-25T01:26:37.440Z,34.83
2023-02-25T01:29:16.476Z,34.87
2023-02-25T01:31:44.693Z,35.05
2023-02-25T01:34:14.821Z,35.08
2023-02-25T01:36:42.190Z,34.83
2023-02-25T01:39:10.038Z,34.80
2023-02-25T01:41:37.649Z,35.06
2023-02-25T01:44:16.156Z,35.16
2023-02-25T01:46:47.444Z,35.11
2023-02-25T01:49:38.545Z,35.06
2023-02-25T01:52:13.193Z,34.77
2023-02-25T01:54:40.697Z,35.11
2023-02-25T01:57:10.347Z,35.07
2023-02-25T01:59:39.044Z,34.76
2023-02-25T02:02:08.661Z,34.87
2023-02-25T02:04:37.773Z,34.68
2023-02-25T02:07:04.350Z,34.96
2023-02-25T02:09:31.350Z,34.75
2023-02-25T02:12:04.546Z,34.74
2023-02-25T02:14:41.267Z,34.70
2023-02-25T02:17:35.830Z,34.82
2023-02-25T02:20:13.693Z,34.81
2023-02-25T02:22:59.434Z,34.89
2023-02-25T02:25:52.710Z,34.85
2023-02-25T02:28:57.798Z,34.79
2023-02-25T02:31:45.035Z,34.71
2023-02-25T02:34:27.418Z,34.97
2023-02-25T02:36:59.739Z,34.80
2023-02-25T02:39:29.402Z,34.84
2023-02-25T02:41:59.858Z,34.76
2023-02-25T02:44:36.268Z,34.64
2023-02-25T02:47:17.863Z,34.93
2023-02-25T02:50:11.908Z,34.92
2023-02-25T02:52:48.669Z,34.72
2023-02-25T02:55:24.259Z,35.01
2023-02-25T02:57:58.276Z,34.88
2023-02-25T03:00:30.647Z,34.98
2023-02-25T03:03:02.581Z,34.79
2023-02-25T03:05:31.691Z,34.50
2023-02-25T03:08:11.854Z,34.59
2023-02-25T03:10:38.597Z,34.61
2023-02-25T03:13:05.938Z,34.71
2023-02-25T03:15:33.508Z,34.73
2023-02-25T03:18:42.525Z,34.83
2023-02-25T03:21:18.478Z,34.57
2023-02-25T03:23:47.613Z,34.66
2023-02-25T03:26:23.982Z,34.75
2023-02-25T03:28:56.404Z,34.55
2023-02-25T03:31:35.092Z,34.59
2023-02-25T03:34:08.549Z,34.65
2023-02-25T03:36:40.966Z,34.67
2023-02-25T03:39:21.811Z,34.60
2023-02-25T03:41:55.431Z,34.32
2023-02-25T03:44:31.571Z,34.50
2023-02-25T03:46:59.797Z,34.26
2023-02-25T03:50:00.498Z,34.12
2023-02-25T03:52:28.473Z,34.51
2023-02-25T03:54:59.462Z,34.51
2023-02-25T03:57:36.038Z,34.21
2023-02-25T04:00:15.572Z,34.28
2023-02-25T04:02:43.077Z,34.60
2023-02-25T04:05:12.489Z,34.47
2023-02-25T04:07:39.388Z,34.16
2023-02-25T04:10:11.214Z,34.51
2023-02-25T04:12:38.936Z,34.15
2023-02-25T04:15:06.565Z,34.26
2023-02-25T04:17:34.199Z,34.46
2023-02-25T04:20:00.731Z,34.35
2023-02-25T04:22:27.577Z,34.26
2023-02-25T04:24:54.114Z,34.22
2023-02-25T04:27:21.018Z,34.33
2023-02-25T04:29:47.584Z,34.26
2023-02-25T04:32:14.182Z,33.84
2023-02-25T04:34:40.983Z,34.40
2023-02-25T04:37:09.199Z,34.27
2023-02-25T04:39:36.171Z,34.41
2023-02-25T04:42:02.854Z,34.10
2023-02-25T04:44:29.399Z,34.32
2023-02-25T04:46:56.116Z,34.10
2023-02-25T04:49:23.352Z,34.28
2023-02-25T04:51:51.496Z,34.03
2023-02-25T04:54:19.811Z,34.01
2023-02-25T04:56:47.293Z,34.13
2023-02-25T04:59:14.397Z,34.44
2023-02-25T05:01:41.602Z,34.14
2023-02-25T05:04:08.178Z,34.17
2023-02-25T05:06:34.747Z,34.33
2023-02-25T05:09:01.307Z,34.20
2023-02-25T05:11:28.980Z,34.17
2023-02-25T05:13:57.032Z,34.09
2023-02-25T05:16:24.999Z,34.15
2023-02-25T05:18:52.394Z,34.21
2023-02-25T05:21:21.417Z,34.19
2023-02-25T05:23:50.297Z,34.16
2023-02-25T05:26:21.931Z,34.31
2023-02-25T05:28:57.066Z,34.30
2023-02-25T05:31:25.120Z,34.28
2023-02-25T05:33:52.581Z,34.12
2023-02-25T05:36:19.826Z,34.14
2023-02-25T05:38:46.991Z,34.32
2023-02-25T05:41:14.729Z,34.36
2023-02-25T05:43:42.302Z,34.13
2023-02-25T05:46:11.872Z,34.10
2023-02-25T05:48:40.158Z,34.11
2023-02-25T05:51:10.479Z,34.24
2023-02-25T05:53:37.344Z,34.17
2023-02-25T05:56:09.720Z,34.15
2023-02-25T05:58:36.486Z,34.15
2023-02-25T06:01:24.689Z,34.06
2023-02-25T06:03:58.508Z,34.06
2023-02-25T06:06:28.468Z,34.29
2023-02-25T06:08:55.371Z,34.11
2023-02-25T06:11:27.666Z,34.29
2023-02-25T06:13:54.747Z,34.04
2023-02-25T06:16:22.555Z,34.24
2023-02-25T06:18:51.385Z,34.13
2023-02-25T06:21:18.610Z,34.10
2023-02-25T06:23:50.143Z,34.10
2023-02-25T06:26:17.057Z,34.23
2023-02-25T06:28:43.818Z,34.27
2023-02-25T06:31:14.710Z,33.96
2023-02-25T06:33:41.806Z,34.14
2023-02-25T06:36:09.366Z,34.24
2023-02-25T06:38:36.802Z,34.21
2023-02-25T06:41:09.275Z,34.25
2023-02-25T06:43:36.585Z,34.22
2023-02-25T06:46:07.866Z,34.33
2023-02-25T06:48:34.808Z,34.40
2023-02-25T06:51:02.821Z,34.22
2023-02-25T06:53:29.558Z,34.22
2023-02-25T06:55:59.037Z,34.45
2023-02-25T06:58:25.676Z,34.53
2023-02-25T07:00:52.277Z,34.67
2023-02-25T07:03:19.043Z,34.50
2023-02-25T07:05:45.579Z,34.67
2023-02-25T07:08:12.235Z,34.58
2023-02-25T07:10:40.561Z,34.50
2023-02-25T07:13:08.871Z,34.53
2023-02-25T07:15:35.928Z,34.65
2023-02-25T07:18:03.816Z,34.61
2023-02-25T07:20:30.926Z,34.74
2023-02-25T07:22:57.902Z,34.65
2023-02-25T07:25:24.596Z,34.75
2023-02-25T07:27:51.443Z,34.92
2023-02-25T07:30:18.231Z,35.24
2023-02-25T07:32:45.587Z,35.56
2023-02-25T07:35:12.810Z,35.75
2023-02-25T07:37:39.697Z,35.84
2023-02-25T07:40:13.096Z,35.88
2023-02-25T07:42:43.359Z,35.73
2023-02-25T07:45:12.155Z,35.94
2023-02-25T07:47:39.223Z,36.14
2023-02-25T07:50:07.224Z,36.26
2023-02-25T07:52:34.132Z,36.10
2023-02-25T07:55:05.102Z,35.94
2023-02-25T07:57:32.071Z,35.67
2023-02-25T07:59:58.850Z,35.89
2023-02-25T08:02:25.811Z,35.72
2023-02-25T08:04:52.621Z,35.70
2023-02-25T08:07:20.381Z,35.22
2023-02-25T08:09:46.913Z,35.25
2023-02-25T08:12:13.608Z,35.64
2023-02-25T08:14:40.153Z,35.52
2023-02-25T08:17:06.927Z,35.13
2023-02-25T08:19:34.118Z,35.30
2023-02-25T08:22:00.823Z,35.10
2023-02-25T08:24:27.834Z,35.68
2023-02-25T08:26:54.808Z,36.27
2023-02-25T08:29:21.484Z,36.65
2023-02-25T08:31:53.168Z,36.69
2023-02-25T08:34:22.278Z,37.01
2023-02-25T08:36:49.990Z,36.56
2023-02-25T08:39:17.177Z,36.54
2023-02-25T08:41:44.802Z,36.46
2023-02-25T08:44:11.855Z,36.45
2023-02-25T08:46:40.436Z,36.49
2023-02-25T08:49:07.171Z,36.33
2023-02-25T08:51:34.206Z,35.85
2023-02-25T08:54:09.486Z,35.94
2023-02-25T08:56:37.009Z,35.76
2023-02-25T08:59:04.811Z,35.66
2023-02-25T09:01:44.858Z,35.59
2023-02-25T09:04:23.452Z,35.65
2023-02-25T09:06:53.852Z,35.40
2023-02-25T09:09:21.988Z,35.50
2023-02-25T09:11:49.363Z,35.73
2023-02-25T09:14:16.919Z,35.54
2023-02-25T09:16:44.200Z,35.56
2023-02-25T09:19:15.620Z,35.49
2023-02-25T09:21:42.475Z,35.55
2023-02-25T09:24:09.961Z,35.74
2023-02-25T09:26:36.951Z,36.03
2023-02-25T09:29:10.130Z,36.62
2023-02-25T09:31:37.541Z,36.88
2023-02-25T09:34:08.233Z,37.07
2023-02-25T09:36:34.914Z,37.28
2023-02-25T09:39:02.481Z,37.00
2023-02-25T09:41:35.406Z,36.91
2023-02-25T09:44:13.494Z,36.98
2023-02-25T09:46:48.477Z,36.89
2023-02-25T09:49:38.543Z,36.80
2023-02-25T09:52:16.795Z,36.55
2023-02-25T09:54:46.687Z,36.40
2023-02-25T09:57:22.488Z,36.10
2023-02-25T09:59:52.290Z,36.22
2023-02-25T10:02:29.372Z,35.90
2023-02-25T10:04:55.974Z,35.82
2023-02-25T10:07:28.486Z,35.85
2023-02-25T10:10:21.758Z,35.79
2023-02-25T10:13:00.509Z,35.71
2023-02-25T10:15:30.278Z,35.50
2023-02-25T10:18:15.672Z,35.62
2023-02-25T10:20:57.314Z,35.58
2023-02-25T10:23:40.781Z,35.39
2023-02-25T10:26:23.775Z,35.65
2023-02-25T10:28:58.406Z,35.50
2023-02-25T10:31:27.711Z,35.79
2023-02-25T10:33:57.195Z,35.59
2023-02-25T10:36:46.617Z,35.91
2023-02-25T10:39:13.259Z,35.89
2023-02-25T10:41:40.097Z,36.07
2023-02-25T10:44:06.708Z,35.99
2023-02-25T10:46:38.795Z,35.90
2023-02-25T10:49:25.396Z,35.77
2023-02-25T10:52:05.375Z,35.77
2023-02-25T10:54:33.775Z,35.60
2023-02-25T10:57:08.279Z,36.16
2023-02-25T10:59:38.669Z,36.34
2023-02-25T11:02:22.091Z,36.74
2023-02-25T11:04:50.438Z,36.67
2023-02-25T11:07:43.299Z,36.68
2023-02-25T11:10:13.314Z,36.78
2023-02-25T11:12:53.031Z,36.86
2023-02-25T11:15:45.310Z,36.56
2023-02-25T11:18:27.484Z,36.44
2023-02-25T11:21:02.954Z,36.23
2023-02-25T11:23:35.549Z,36.34
2023-02-25T11:26:03.301Z,36.21
2023-02-25T11:28:43.765Z,35.95
2023-02-25T11:31:19.124Z,36.17
2023-02-25T11:33:53.489Z,35.98
2023-02-25T11:36:26.515Z,35.83
2023-02-25T11:39:04.263Z,35.85
2023-02-25T11:41:32.414Z,35.91
2023-02-25T11:44:16.995Z,36.19
2023-02-25T11:46:46.118Z,36.11
2023-02-25T11:49:21.759Z,35.87
2023-02-25T11:52:02.292Z,36.16
2023-02-25T11:54:45.315Z,36.16
2023-02-25T11:57:35.507Z,36.09
2023-02-25T12:00:20.841Z,36.38
2023-02-25T12:03:01.295Z,36.28
2023-02-25T12:05:35.152Z,36.26
2023-02-25T12:08:25.085Z,36.36
2023-02-25T12:11:25.774Z,36.12
2023-02-25T12:14:29.285Z,36.18
2023-02-25T12:17:13.947Z,36.29
2023-02-25T12:20:01.741Z,36.59
2023-02-25T12:22:52.883Z,36.42
2023-02-25T12:25:30.145Z,36.69
2023-02-25T12:28:24.911Z,36.86
2023-02-25T12:31:03.157Z,37.17
2023-02-25T12:33:48.335Z,36.91
2023-02-25T12:36:33.529Z,37.11
2023-02-25T12:39:25.290Z,37.08
2023-02-25T12:41:58.232Z,36.81
2023-02-25T12:44:55.130Z,36.77
2023-02-25T12:47:33.853Z,36.93
2023-02-25T12:50:16.377Z,36.58
2023-02-25T12:52:57.737Z,36.77
2023-02-25T12:55:44.821Z,37.01
2023-02-25T12:58:33.711Z,36.95
2023-02-25T13:01:18.950Z,36.87
2023-02-25T13:03:57.600Z,36.84
2023-02-25T13:07:02.011Z,37.19
2023-02-25T13:10:03.286Z,36.90
2023-02-25T13:12:57.685Z,37.16
2023-02-25T13:15:49.403Z,37.78
2023-02-25T13:18:18.742Z,37.62
2023-02-25T13:21:12.428Z,37.73
2023-02-25T13:24:03.476Z,37.94
2023-02-25T13:26:48.226Z,37.89
2023-02-25T13:29:39.695Z,38.01
2023-02-25T13:32:09.108Z,38.02
2023-02-25T13:37:15.815Z,38.29
2023-02-25T13:40:26.875Z,38.05
2023-02-25T13:43:26.036Z,38.16
2023-02-25T13:46:28.388Z,38.10
2023-02-25T13:49:26.867Z,38.02
2023-02-25T13:52:28.708Z,38.08
2023-02-25T13:55:11.516Z,37.56
2023-02-25T13:58:06.602Z,38.01
2023-02-25T14:00:56.386Z,38.66
2023-02-25T14:03:32.161Z,39.18
2023-02-25T14:06:11.932Z,39.24
2023-02-25T14:09:07.469Z,39.51
2023-02-25T14:11:43.983Z,39.47
2023-02-25T14:14:54.617Z,39.30
2023-02-25T14:17:30.160Z,39.23
2023-02-25T14:20:40.194Z,39.35
2023-02-25T14:23:45.516Z,39.30
2023-02-25T14:26:22.618Z,40.37
2023-02-25T14:29:07.548Z,40.73
2023-02-25T14:31:46.942Z,40.68
2023-02-25T14:34:35.054Z,40.83
2023-02-25T14:37:24.834Z,40.77
2023-02-25T14:39:57.482Z,41.02
2023-02-25T14:42:24.060Z,40.73
2023-02-25T14:45:10.724Z,40.55
2023-02-25T14:47:55.826Z,40.41
2023-02-25T14:50:32.243Z,40.44
2023-02-25T14:53:36.046Z,40.33
2023-02-25T14:56:15.174Z,40.24
2023-02-25T14:58:57.107Z,40.00
2023-02-25T15:01:55.730Z,39.96
2023-02-25T15:04:41.822Z,39.79
2023-02-25T15:07:29.957Z,39.79
2023-02-25T15:10:21.709Z,39.76
2023-02-25T15:13:10.380Z,39.68
2023-02-25T15:15:40.853Z,39.53
2023-02-25T15:18:19.479Z,39.56
2023-02-25T15:20:46.774Z,39.48
2023-02-25T15:23:14.492Z,39.64
2023-02-25T15:25:50.546Z,39.59
2023-02-25T15:28:29.285Z,39.84
2023-02-25T15:30:58.919Z,39.66
2023-02-25T15:33:40.757Z,39.65
2023-02-25T15:36:17.276Z,39.44
2023-02-25T15:38:53.868Z,39.28
2023-02-25T15:41:26.532Z,39.44
2023-02-25T15:44:00.304Z,39.10
2023-02-25T15:46:36.020Z,39.22
2023-02-25T15:49:15.872Z,38.94
2023-02-25T15:51:51.434Z,39.24
2023-02-25T15:54:30.322Z,39.16
2023-02-25T15:57:24.562Z,39.13
2023-02-25T15:59:55.400Z,39.10
2023-02-25T16:02:33.241Z,39.29
2023-02-25T16:05:01.954Z,39.17
2023-02-25T16:07:36.087Z,39.21
2023-02-25T16:10:09.129Z,39.10
2023-02-25T16:12:38.636Z,39.30
2023-02-25T16:15:06.135Z,38.91
2023-02-25T16:17:35.402Z,39.34
2023-02-25T16:20:25.641Z,39.15
2023-02-25T16:22:57.391Z,39.35
2023-02-25T16:25:49.002Z,39.24
2023-02-25T16:28:24.635Z,39.29
2023-02-25T16:31:12.442Z,39.34
2023-02-25T16:34:07.810Z,39.44
2023-02-25T16:36:47.326Z,39.47
2023-02-25T16:39:13.841Z,39.62
2023-02-25T16:41:41.901Z,39.47
2023-02-25T16:44:08.972Z,39.52
2023-02-25T16:46:39.017Z,39.72
2023-02-25T16:49:11.165Z,39.61
2023-02-25T16:51:41.265Z,39.66
2023-02-25T16:54:17.799Z,39.48
2023-02-25T16:56:47.036Z,39.52
2023-02-25T16:59:13.506Z,39.61
2023-02-25T17:01:49.027Z,39.25
2023-02-25T17:04:19.784Z,39.58
2023-02-25T17:07:17.923Z,39.79
2023-02-25T17:09:48.863Z,39.99
2023-02-25T17:12:43.690Z,40.24
2023-02-25T17:15:40.687Z,40.09
2023-02-25T17:18:13.237Z,40.16
2023-02-25T17:20:39.959Z,40.12
2023-02-25T17:23:11.818Z,39.96
2023-02-25T17:25:42.026Z,40.00
2023-02-25T17:28:26.034Z,40.05
2023-02-25T17:30:54.889Z,39.86
2023-02-25T17:33:27.058Z,40.00
2023-02-25T17:35:58.839Z,39.99
2023-02-25T17:38:28.854Z,39.81
2023-02-25T17:40:55.664Z,40.03
2023-02-25T17:43:25.123Z,40.08
2023-02-25T17:46:01.169Z,39.90
2023-02-25T17:48:31.410Z,39.72
2023-02-25T17:51:07.810Z,40.04
2023-02-25T17:53:38.167Z,39.91
2023-02-25T17:56:28.852Z,39.95
2023-02-25T17:59:08.130Z,40.09
2023-02-25T18:01:56.548Z,39.83
2023-02-25T18:04:39.118Z,40.01
2023-02-25T18:07:22.276Z,40.09
2023-02-25T18:09:49.852Z,40.16
2023-02-25T18:12:27.656Z,40.36
2023-02-25T18:14:58.644Z,40.16
2023-02-25T18:17:52.931Z,40.54
2023-02-25T18:20:36.402Z,40.51
2023-02-25T18:23:16.028Z,40.70
2023-02-25T18:25:44.891Z,40.73
2023-02-25T18:28:24.270Z,40.62
2023-02-25T18:30:51.160Z,40.50
2023-02-25T18:33:18.528Z,40.45
2023-02-25T18:35:47.110Z,40.63
2023-02-25T18:38:20.637Z,40.62
2023-02-25T18:40:48.774Z,40.53
2023-02-25T18:43:20.358Z,40.32
2023-02-25T18:45:47.884Z,40.23
2023-02-25T18:48:14.717Z,40.09
2023-02-25T18:50:44.450Z,40.13
2023-02-25T18:53:19.169Z,40.12
2023-02-25T18:55:45.909Z,39.95
2023-02-25T18:58:14.569Z,39.94
2023-02-25T19:00:43.441Z,39.67
2023-02-25T19:03:14.567Z,39.90
2023-02-25T19:05:41.995Z,39.74
2023-02-25T19:08:13.104Z,40.65
2023-02-25T19:10:40.016Z,41.25
2023-02-25T19:13:16.470Z,41.21
2023-02-25T19:15:44.231Z,41.19
2023-02-25T19:18:15.198Z,41.23
2023-02-25T19:20:43.945Z,41.41
2023-02-25T19:23:15.914Z,40.99
2023-02-25T19:25:44.763Z,41.00
2023-02-25T19:28:11.610Z,40.98
2023-02-25T19:30:44.666Z,40.69
2023-02-25T19:33:12.576Z,41.09
2023-02-25T19:35:42.301Z,41.71
2023-02-25T19:38:13.634Z,41.92
2023-02-25T19:40:40.585Z,41.80
2023-02-25T19:43:11.271Z,41.67
2023-02-25T19:45:42.118Z,41.60
2023-02-25T19:48:12.426Z,41.44
2023-02-25T19:50:44.185Z,41.11
2023-02-25T19:56:09.430Z,40.90
2023-02-25T19:58:41.560Z,40.78
2023-02-25T20:01:11.363Z,40.55
2023-02-25T20:03:38.120Z,40.49
2023-02-25T20:06:09.550Z,40.31
2023-02-25T20:08:39.918Z,40.29
2023-02-25T20:11:10.683Z,40.26
2023-02-25T20:13:38.578Z,40.35
2023-02-25T20:16:08.545Z,39.95
2023-02-25T20:18:38.240Z,40.04
2023-02-25T20:21:05.837Z,39.83
2023-02-25T20:23:32.599Z,39.99
2023-02-25T20:26:10.922Z,39.85
2023-02-25T20:28:37.754Z,39.56
2023-02-25T20:31:16.219Z,39.47
2023-02-25T20:33:43.663Z,39.74
2023-02-25T20:36:22.182Z,39.67
2023-02-25T20:38:57.606Z,39.67
2023-02-25T20:41:25.596Z,39.57
2023-02-25T20:43:54.885Z,39.50
2023-02-25T20:46:28.448Z,39.39
2023-02-25T20:48:56.343Z,39.49
2023-02-25T20:51:26.129Z,39.22
2023-02-25T20:53:53.477Z,39.44
2023-02-25T20:56:23.577Z,39.27
2023-02-25T21:01:07.485Z,39.06
2023-02-25T21:03:34.459Z,39.09
2023-02-25T21:06:01.057Z,38.87
2023-02-25T21:08:27.765Z,38.90
2023-02-25T21:10:54.539Z,38.91
2023-02-25T21:13:24.344Z,38.85
2023-02-25T21:16:05.419Z,38.66
2023-02-25T21:18:36.227Z,38.52
2023-02-25T21:21:07.907Z,38.69
2023-02-25T21:23:36.306Z,38.58
2023-02-25T21:26:04.970Z,38.67
2023-02-25T21:28:32.346Z,38.63
2023-02-25T21:31:05.334Z,38.54
2023-02-25T21:33:33.314Z,38.31
2023-02-25T21:36:00.614Z,38.49
2023-02-25T21:38:28.162Z,38.26
2023-02-25T21:40:55.977Z,38.41
2023-02-25T21:43:23.076Z,38.27
2023-02-25T21:45:55.309Z,38.30
2023-02-25T21:48:22.802Z,38.21
2023-02-25T21:50:49.633Z,38.11
2023-02-25T21:53:16.655Z,38.03
2023-02-25T21:55:43.782Z,38.12
2023-02-25T21:58:11.692Z,37.83
2023-02-25T22:00:38.815Z,37.76
2023-02-25T22:03:06.162Z,37.87
2023-02-25T22:05:33.055Z,37.93
2023-02-25T22:07:59.686Z,37.93
2023-02-25T22:10:26.474Z,37.85
2023-02-25T22:12:54.056Z,37.70
2023-02-25T22:15:23.991Z,37.76
2023-02-25T22:17:50.627Z,37.55
2023-02-25T22:20:17.471Z,37.47
2023-02-25T22:22:44.178Z,37.50
2023-02-25T22:25:10.882Z,37.47
2023-02-25T22:27:37.400Z,37.38
2023-02-25T22:30:04.519Z,37.20
2023-02-25T22:32:31.321Z,37.34
2023-02-25T22:34:57.955Z,37.29
2023-02-25T22:37:25.105Z,37.33
2023-02-25T22:39:51.636Z,37.07
2023-02-25T22:42:18.207Z,37.07
2023-02-25T22:44:46.921Z,37.16
2023-02-25T22:47:13.468Z,37.25
2023-02-25T22:49:40.163Z,36.99
2023-02-25T22:52:06.712Z,37.10
2023-02-25T22:54:33.270Z,36.95
2023-02-25T22:56:59.839Z,36.64
2023-02-25T22:59:26.508Z,36.92
2023-02-25T23:01:53.583Z,36.57
2023-02-25T23:04:20.100Z,36.89
2023-02-25T23:06:48.100Z,36.77
2023-02-25T23:09:14.840Z,36.77
2023-02-25T23:11:43.277Z,36.77
2023-02-25T23:14:10.180Z,36.62
2023-02-25T23:16:40.399Z,36.84
2023-02-25T23:19:09.469Z,36.74
2023-02-25T23:21:38.458Z,36.66
2023-02-25T23:24:07.588Z,36.59
2023-02-25T23:26:39.082Z,36.48
2023-02-25T23:29:08.685Z,36.51
2023-02-25T23:31:42.550Z,36.35
2023-02-25T23:34:13.834Z,36.36
2023-02-25T23:36:42.360Z,36.27
2023-02-25T23:39:11.345Z,36.33
2023-02-25T23:41:39.236Z,36.15
2023-02-25T23:44:08.378Z,36.18
2023-02-25T23:46:35.942Z,36.22
2023-02-25T23:49:06.830Z,36.33
2023-02-25T23:51:34.201Z,36.16
2023-02-25T23:54:03.441Z,36.06
2023-02-25T23:56:31.244Z,36.08
2023-02-25T23:58:58.444Z,36.04
